Mark L — WDC2718 — position and weather

sailwx.info

Track history (hours):
 
Tides and Currents Weather Stations Pressure Air Temp Water Temp Dewpoint Dewpoint Depression Visibility Wind Speed Wind Dir Waves Ship Positions

Mark L

Owner: Kirby Inland Marine, LP, Houston, TX. More information available from US FCC via Universal Licensing System and Coast Guard Vessel Documentation Center.

Last reported at 2017-Nov-18 18:33 UTC. Time now 2017-Nov-19 21:52 UTC.
Position N 29°45' W 095°10'.

Length 116 m.

Type: . MMSI: 366996760.

Date/timePositionNaut miles runAvg speedWind from/ knotsBaromVisibWave heightAir tempDewpointWater temp
2017-Nov-18 18:33N 29°45' W 095°10'1 4.8
2017-Nov-18 18:20N 29°44' W 095°09'5 0.2
2017-Nov-17 15:18N 29°44' W 095°14'0 0.0
2017-Nov-17 15:00N 29°43' W 095°14'0 0.0
2017-Nov-17 14:30N 29°43' W 095°14'0 0.0
2017-Nov-17 14:00N 29°43' W 095°14'0 0.0
2017-Nov-17 13:30N 29°43' W 095°14'0 0.0
2017-Nov-17 12:59N 29°43' W 095°14'0 0.0
2017-Nov-17 12:30N 29°43' W 095°14'0 0.0
2017-Nov-17 12:00N 29°43' W 095°14'0 0.0
2017-Nov-17 11:10N 29°43' W 095°14'0 0.0
2017-Nov-17 10:55N 29°43' W 095°14'0 0.0
2017-Nov-17 10:30N 29°43' W 095°14'0 0.0
2017-Nov-17 09:57N 29°43' W 095°14'0 0.0
2017-Nov-17 09:30N 29°43' W 095°14'0 0.0
2017-Nov-17 08:54N 29°43' W 095°14'0 0.0
2017-Nov-17 08:30N 29°43' W 095°14'0 0.0
2017-Nov-17 08:00N 29°43' W 095°14'0 0.0
2017-Nov-17 07:30N 29°43' W 095°14'0 0.0
2017-Nov-17 07:00N 29°43' W 095°14'0 0.0
2017-Nov-17 06:30N 29°43' W 095°14'0 0.0
2017-Nov-17 06:00N 29°43' W 095°14'0 0.0
2017-Nov-17 05:30N 29°44' W 095°14'0 0.0
2017-Nov-17 05:00N 29°43' W 095°14'0 0.0
2017-Nov-17 04:30N 29°43' W 095°14'0 0.0
2017-Nov-17 04:00N 29°44' W 095°14'0 0.0
2017-Nov-17 03:30N 29°43' W 095°14'0 0.1
2017-Nov-17 03:00N 29°43' W 095°14'0 0.1
2017-Nov-17 02:30N 29°43' W 095°14'0 0.0
2017-Nov-17 01:53N 29°43' W 095°14'0 0.0
2017-Nov-17 01:24N 29°44' W 095°14'0 0.0
2017-Nov-17 01:00N 29°43' W 095°14'0 0.0
2017-Nov-17 00:30N 29°43' W 095°14'0 0.0
2017-Nov-17 00:00N 29°43' W 095°14'0 0.0
2017-Nov-16 23:30N 29°44' W 095°14'0 0.0
2017-Nov-16 23:00N 29°43' W 095°14'0 0.1
2017-Nov-16 22:30N 29°44' W 095°14'2 1.1
2017-Nov-16 20:55N 29°44' W 095°12'2 4.6
2017-Nov-16 20:29N 29°45' W 095°10'5 0.2
2017-Nov-15 20:42N 29°47' W 095°04'  
2017-Nov-13 01:56N 29°47' W 095°04'0 0.0
2017-Nov-12 13:08N 29°47' W 095°04'0 0.0
2017-Nov-12 13:00N 29°47' W 095°04'0 0.0
2017-Nov-12 12:27N 29°47' W 095°04'0 0.1
2017-Nov-12 11:28N 29°47' W 095°04'0 0.0
2017-Nov-12 05:59N 29°47' W 095°04'0 0.0
2017-Nov-12 05:27N 29°47' W 095°04'0 0.0
2017-Nov-12 04:57N 29°47' W 095°04'0 0.0
2017-Nov-12 04:29N 29°47' W 095°04'0 0.0
2017-Nov-12 03:49N 29°47' W 095°04'0 0.0
2017-Nov-12 03:30N 29°47' W 095°04'0 0.0
2017-Nov-12 02:56N 29°47' W 095°04'0 0.0
2017-Nov-11 09:35N 29°47' W 095°04'0 0.1
2017-Nov-11 08:54N 29°47' W 095°04'0 0.0
2017-Nov-11 00:16N 29°47' W 095°04'  
Track history (hours):
 
Tides and Currents Weather Stations Pressure Air Temp Water Temp Dewpoint Dewpoint Depression Visibility Wind Speed Wind Dir Waves Ship Positions

Mark L

Owner: Kirby Inland Marine, LP, Houston, TX. More information available from US FCC via Universal Licensing System and Coast Guard Vessel Documentation Center.

Last reported at 2017-Nov-18 18:33 UTC. Time now 2017-Nov-19 21:52 UTC.
Position N 29°45' W 095°10'.

Length 116 m.

Type: . MMSI: 366996760.

Date/timePositionNaut miles runAvg speedWind from/ knotsBaromVisibWave heightAir tempDewpointWater temp
2017-Nov-18 18:33N 29°45' W 095°10'1 4.8
2017-Nov-18 18:20N 29°44' W 095°09'5 0.2
2017-Nov-17 15:18N 29°44' W 095°14'0 0.0
2017-Nov-17 15:00N 29°43' W 095°14'0 0.0
2017-Nov-17 14:30N 29°43' W 095°14'0 0.0
2017-Nov-17 14:00N 29°43' W 095°14'0 0.0
2017-Nov-17 13:30N 29°43' W 095°14'0 0.0
2017-Nov-17 12:59N 29°43' W 095°14'0 0.0
2017-Nov-17 12:30N 29°43' W 095°14'0 0.0
2017-Nov-17 12:00N 29°43' W 095°14'0 0.0
2017-Nov-17 11:10N 29°43' W 095°14'0 0.0
2017-Nov-17 10:55N 29°43' W 095°14'0 0.0
2017-Nov-17 10:30N 29°43' W 095°14'0 0.0
2017-Nov-17 09:57N 29°43' W 095°14'0 0.0
2017-Nov-17 09:30N 29°43' W 095°14'0 0.0
2017-Nov-17 08:54N 29°43' W 095°14'0 0.0
2017-Nov-17 08:30N 29°43' W 095°14'0 0.0
2017-Nov-17 08:00N 29°43' W 095°14'0 0.0
2017-Nov-17 07:30N 29°43' W 095°14'0 0.0
2017-Nov-17 07:00N 29°43' W 095°14'0 0.0
2017-Nov-17 06:30N 29°43' W 095°14'0 0.0
2017-Nov-17 06:00N 29°43' W 095°14'0 0.0
2017-Nov-17 05:30N 29°44' W 095°14'0 0.0
2017-Nov-17 05:00N 29°43' W 095°14'0 0.0
2017-Nov-17 04:30N 29°43' W 095°14'0 0.0
2017-Nov-17 04:00N 29°44' W 095°14'0 0.0
2017-Nov-17 03:30N 29°43' W 095°14'0 0.1
2017-Nov-17 03:00N 29°43' W 095°14'0 0.1
2017-Nov-17 02:30N 29°43' W 095°14'0 0.0
2017-Nov-17 01:53N 29°43' W 095°14'0 0.0
2017-Nov-17 01:24N 29°44' W 095°14'0 0.0
2017-Nov-17 01:00N 29°43' W 095°14'0 0.0
2017-Nov-17 00:30N 29°43' W 095°14'0 0.0
2017-Nov-17 00:00N 29°43' W 095°14'0 0.0
2017-Nov-16 23:30N 29°44' W 095°14'0 0.0
2017-Nov-16 23:00N 29°43' W 095°14'0 0.1
2017-Nov-16 22:30N 29°44' W 095°14'2 1.1
2017-Nov-16 20:55N 29°44' W 095°12'2 4.6
2017-Nov-16 20:29N 29°45' W 095°10'5 0.2
2017-Nov-15 20:42N 29°47' W 095°04'  
2017-Nov-13 01:56N 29°47' W 095°04'0 0.0
2017-Nov-12 13:08N 29°47' W 095°04'0 0.0
2017-Nov-12 13:00N 29°47' W 095°04'0 0.0
2017-Nov-12 12:27N 29°47' W 095°04'0 0.1
2017-Nov-12 11:28N 29°47' W 095°04'0 0.0
2017-Nov-12 05:59N 29°47' W 095°04'0 0.0
2017-Nov-12 05:27N 29°47' W 095°04'0 0.0
2017-Nov-12 04:57N 29°47' W 095°04'0 0.0
2017-Nov-12 04:29N 29°47' W 095°04'0 0.0
2017-Nov-12 03:49N 29°47' W 095°04'0 0.0
2017-Nov-12 03:30N 29°47' W 095°04'0 0.0
2017-Nov-12 02:56N 29°47' W 095°04'0 0.0
2017-Nov-11 09:35N 29°47' W 095°04'0 0.1
2017-Nov-11 08:54N 29°47' W 095°04'0 0.0
2017-Nov-11 00:16N 29°47' W 095°04'  

Dump ship's entire track history